sensor_id;sensor_type;location;lat;lon;timestamp;temperature;humidity
20726;DHT22;10524;48.132;8.518;2024-03-08T00:01:31;-1.50;99.90
20726;DHT22;10524;48.132;8.518;2024-03-08T00:03:57;-1.40;99.90
20726;DHT22;10524;48.132;8.518;2024-03-08T00:06:22;-1.30;99.90
20726;DHT22;10524;48.132;8.518;2024-03-08T00:08:48;-1.20;99.90
20726;DHT22;10524;48.132;8.518;2024-03-08T00:11:14;-0.90;99.90
20726;DHT22;10524;48.132;8.518;2024-03-08T00:13:40;-0.80;99.90
20726;DHT22;10524;48.132;8.518;2024-03-08T00:16:06;-0.70;99.90
20726;DHT22;10524;48.132;8.518;2024-03-08T00:18:31;-0.60;99.90
20726;DHT22;10524;48.132;8.518;2024-03-08T00:20:58;-0.70;99.90
20726;DHT22;10524;48.132;8.518;2024-03-08T00:23:24;-0.80;99.90
20726;DHT22;10524;48.132;8.518;2024-03-08T00:25:49;-0.80;99.90
20726;DHT22;10524;48.132;8.518;2024-03-08T00:28:15;-0.90;99.90
20726;DHT22;10524;48.132;8.518;2024-03-08T00:30:42;-1.00;99.90
20726;DHT22;10524;48.132;8.518;2024-03-08T00:33:08;-0.90;99.90
20726;DHT22;10524;48.132;8.518;2024-03-08T00:35:34;-0.80;99.90
20726;DHT22;10524;48.132;8.518;2024-03-08T00:37:59;-0.80;99.90
20726;DHT22;10524;48.132;8.518;2024-03-08T00:40:25;-0.80;99.90
20726;DHT22;10524;48.132;8.518;2024-03-08T00:42:51;-0.80;99.90
20726;DHT22;10524;48.132;8.518;2024-03-08T00:45:18;-0.70;99.90
20726;DHT22;10524;48.132;8.518;2024-03-08T00:47:44;-0.70;99.90
20726;DHT22;10524;48.132;8.518;2024-03-08T00:50:10;-0.60;99.90
20726;DHT22;10524;48.132;8.518;2024-03-08T00:52:37;-0.60;99.90
20726;DHT22;10524;48.132;8.518;2024-03-08T00:55:03;-0.60;99.90
20726;DHT22;10524;48.132;8.518;2024-03-08T00:57:28;-0.70;99.90
20726;DHT22;10524;48.132;8.518;2024-03-08T00:59:55;-0.70;99.90
20726;DHT22;10524;48.132;8.518;2024-03-08T01:02:21;-0.80;99.90
20726;DHT22;10524;48.132;8.518;2024-03-08T01:04:48;-0.80;99.90
20726;DHT22;10524;48.132;8.518;2024-03-08T01:07:17;-0.80;99.90
20726;DHT22;10524;48.132;8.518;2024-03-08T01:09:43;-0.80;99.90
20726;DHT22;10524;48.132;8.518;2024-03-08T01:12:09;-0.80;99.90
20726;DHT22;10524;48.132;8.518;2024-03-08T01:14:36;-0.80;99.90
20726;DHT22;10524;48.132;8.518;2024-03-08T01:17:01;-0.80;99.90
20726;DHT22;10524;48.132;8.518;2024-03-08T01:19:27;-0.80;99.90
20726;DHT22;10524;48.132;8.518;2024-03-08T01:21:53;-0.80;99.90
20726;DHT22;10524;48.132;8.518;2024-03-08T01:24:21;-0.80;99.90
20726;DHT22;10524;48.132;8.518;2024-03-08T01:26:46;-0.80;99.90
20726;DHT22;10524;48.132;8.518;2024-03-08T01:29:12;-0.90;99.90
20726;DHT22;10524;48.132;8.518;2024-03-08T01:31:38;-0.90;99.90
20726;DHT22;10524;48.132;8.518;2024-03-08T01:34:04;-0.90;99.90
20726;DHT22;10524;48.132;8.518;2024-03-08T01:36:30;-0.80;99.90
20726;DHT22;10524;48.132;8.518;2024-03-08T01:38:56;-0.80;99.90
20726;DHT22;10524;48.132;8.518;2024-03-08T01:41:21;-0.80;99.90
20726;DHT22;10524;48.132;8.518;2024-03-08T01:43:47;-0.80;99.90
20726;DHT22;10524;48.132;8.518;2024-03-08T01:46:18;-0.80;99.90
20726;DHT22;10524;48.132;8.518;2024-03-08T01:48:45;-0.80;99.90
20726;DHT22;10524;48.132;8.518;2024-03-08T01:51:11;-0.80;99.90
20726;DHT22;10524;48.132;8.518;2024-03-08T01:53:38;-0.80;99.90
20726;DHT22;10524;48.132;8.518;2024-03-08T01:56:05;-0.90;99.90
20726;DHT22;10524;48.132;8.518;2024-03-08T01:58:31;-0.80;99.90
20726;DHT22;10524;48.132;8.518;2024-03-08T02:00:58;-0.80;99.90
20726;DHT22;10524;48.132;8.518;2024-03-08T02:03:24;-0.70;99.90
20726;DHT22;10524;48.132;8.518;2024-03-08T02:05:50;-0.70;99.90
20726;DHT22;10524;48.132;8.518;2024-03-08T02:08:18;-0.70;99.90
20726;DHT22;10524;48.132;8.518;2024-03-08T02:10:45;-0.60;99.90
20726;DHT22;10524;48.132;8.518;2024-03-08T02:13:11;-0.60;99.90
20726;DHT22;10524;48.132;8.518;2024-03-08T02:15:59;-0.50;99.90
20726;DHT22;10524;48.132;8.518;2024-03-08T02:18:25;-0.50;99.90
20726;DHT22;10524;48.132;8.518;2024-03-08T02:20:52;-0.50;99.90
20726;DHT22;10524;48.132;8.518;2024-03-08T02:23:22;-0.50;99.90
20726;DHT22;10524;48.132;8.518;2024-03-08T02:25:48;-0.40;99.90
20726;DHT22;10524;48.132;8.518;2024-03-08T02:28:15;-0.40;99.90
20726;DHT22;10524;48.132;8.518;2024-03-08T02:30:41;-0.40;99.90
20726;DHT22;10524;48.132;8.518;2024-03-08T02:33:07;-0.30;99.90
20726;DHT22;10524;48.132;8.518;2024-03-08T02:35:35;-0.30;99.90
20726;DHT22;10524;48.132;8.518;2024-03-08T02:38:04;-0.20;99.90
20726;DHT22;10524;48.132;8.518;2024-03-08T02:40:30;-0.20;99.90
20726;DHT22;10524;48.132;8.518;2024-03-08T02:42:56;-0.20;99.90
20726;DHT22;10524;48.132;8.518;2024-03-08T02:45:22;-0.20;99.90
20726;DHT22;10524;48.132;8.518;2024-03-08T02:47:47;-0.20;99.90
20726;DHT22;10524;48.132;8.518;2024-03-08T02:50:16;-0.10;99.90
20726;DHT22;10524;48.132;8.518;2024-03-08T02:52:42;-0.10;99.90
20726;DHT22;10524;48.132;8.518;2024-03-08T02:55:09;0.00;99.90
20726;DHT22;10524;48.132;8.518;2024-03-08T02:57:36;0.00;99.90
20726;DHT22;10524;48.132;8.518;2024-03-08T03:00:02;0.10;99.90
20726;DHT22;10524;48.132;8.518;2024-03-08T03:02:29;0.10;99.90
20726;DHT22;10524;48.132;8.518;2024-03-08T03:04:55;0.10;99.90
20726;DHT22;10524;48.132;8.518;2024-03-08T03:07:21;0.10;99.90
20726;DHT22;10524;48.132;8.518;2024-03-08T03:09:47;0.10;99.90
20726;DHT22;10524;48.132;8.518;2024-03-08T03:12:13;0.20;99.90
20726;DHT22;10524;48.132;8.518;2024-03-08T03:14:39;0.10;99.90
20726;DHT22;10524;48.132;8.518;2024-03-08T03:17:05;0.10;99.90
20726;DHT22;10524;48.132;8.518;2024-03-08T03:19:31;0.10;99.90
20726;DHT22;10524;48.132;8.518;2024-03-08T03:21:57;0.10;99.90
20726;DHT22;10524;48.132;8.518;2024-03-08T03:24:23;0.10;99.90
20726;DHT22;10524;48.132;8.518;2024-03-08T03:26:49;0.10;99.90
20726;DHT22;10524;48.132;8.518;2024-03-08T03:29:15;0.10;99.90
20726;DHT22;10524;48.132;8.518;2024-03-08T03:31:42;0.20;99.90
20726;DHT22;10524;48.132;8.518;2024-03-08T03:34:12;0.20;99.90
20726;DHT22;10524;48.132;8.518;2024-03-08T03:36:38;0.20;99.90
20726;DHT22;10524;48.132;8.518;2024-03-08T03:39:11;0.20;99.90
20726;DHT22;10524;48.132;8.518;2024-03-08T03:41:38;0.20;99.90
20726;DHT22;10524;48.132;8.518;2024-03-08T03:44:05;0.20;99.90
20726;DHT22;10524;48.132;8.518;2024-03-08T03:46:33;0.20;99.90
20726;DHT22;10524;48.132;8.518;2024-03-08T03:48:59;0.20;99.90
20726;DHT22;10524;48.132;8.518;2024-03-08T03:51:25;0.20;99.90
20726;DHT22;10524;48.132;8.518;2024-03-08T03:53:51;0.20;99.90
20726;DHT22;10524;48.132;8.518;2024-03-08T03:56:19;0.20;99.90
20726;DHT22;10524;48.132;8.518;2024-03-08T03:58:44;0.20;99.90
20726;DHT22;10524;48.132;8.518;2024-03-08T04:01:10;0.20;99.90
20726;DHT22;10524;48.132;8.518;2024-03-08T04:03:36;0.20;99.90
20726;DHT22;10524;48.132;8.518;2024-03-08T04:06:04;0.20;99.90
20726;DHT22;10524;48.132;8.518;2024-03-08T04:08:30;0.30;99.90
20726;DHT22;10524;48.132;8.518;2024-03-08T04:10:56;0.20;99.90
20726;DHT22;10524;48.132;8.518;2024-03-08T04:13:23;0.20;99.90
20726;DHT22;10524;48.132;8.518;2024-03-08T04:15:49;0.30;99.90
20726;DHT22;10524;48.132;8.518;2024-03-08T04:18:15;0.30;99.90
20726;DHT22;10524;48.132;8.518;2024-03-08T04:20:41;0.30;99.90
20726;DHT22;10524;48.132;8.518;2024-03-08T04:23:07;0.30;99.90
20726;DHT22;10524;48.132;8.518;2024-03-08T04:25:32;0.30;99.90
20726;DHT22;10524;48.132;8.518;2024-03-08T04:27:58;0.30;99.90
20726;DHT22;10524;48.132;8.518;2024-03-08T04:30:24;0.30;99.90
20726;DHT22;10524;48.132;8.518;2024-03-08T04:32:50;0.30;99.90
20726;DHT22;10524;48.132;8.518;2024-03-08T04:35:16;0.30;99.90
20726;DHT22;10524;48.132;8.518;2024-03-08T04:37:42;0.30;99.90
20726;DHT22;10524;48.132;8.518;2024-03-08T04:40:08;0.30;99.90
20726;DHT22;10524;48.132;8.518;2024-03-08T04:42:34;0.30;99.90
20726;DHT22;10524;48.132;8.518;2024-03-08T04:45:01;0.30;99.90
20726;DHT22;10524;48.132;8.518;2024-03-08T04:47:26;0.30;99.90
20726;DHT22;10524;48.132;8.518;2024-03-08T04:49:52;0.40;99.90
20726;DHT22;10524;48.132;8.518;2024-03-08T04:52:18;0.30;99.90
20726;DHT22;10524;48.132;8.518;2024-03-08T04:54:44;0.40;99.90
20726;DHT22;10524;48.132;8.518;2024-03-08T04:57:10;0.40;99.90
20726;DHT22;10524;48.132;8.518;2024-03-08T04:59:36;0.40;99.90
20726;DHT22;10524;48.132;8.518;2024-03-08T05:02:02;0.40;99.90
20726;DHT22;10524;48.132;8.518;2024-03-08T05:04:28;0.30;99.90
20726;DHT22;10524;48.132;8.518;2024-03-08T05:06:55;0.30;99.90
20726;DHT22;10524;48.132;8.518;2024-03-08T05:09:21;0.40;99.90
20726;DHT22;10524;48.132;8.518;2024-03-08T05:11:47;0.40;99.90
20726;DHT22;10524;48.132;8.518;2024-03-08T05:14:13;0.40;99.90
20726;DHT22;10524;48.132;8.518;2024-03-08T05:16:43;0.40;99.90
20726;DHT22;10524;48.132;8.518;2024-03-08T05:19:09;0.40;99.90
20726;DHT22;10524;48.132;8.518;2024-03-08T05:21:34;0.40;99.90
20726;DHT22;10524;48.132;8.518;2024-03-08T05:24:00;0.40;99.90
20726;DHT22;10524;48.132;8.518;2024-03-08T05:26:26;0.40;99.90
20726;DHT22;10524;48.132;8.518;2024-03-08T05:28:52;0.40;99.90
20726;DHT22;10524;48.132;8.518;2024-03-08T05:31:21;0.40;99.90
20726;DHT22;10524;48.132;8.518;2024-03-08T05:33:50;0.30;99.90
20726;DHT22;10524;48.132;8.518;2024-03-08T05:36:16;0.30;99.90
20726;DHT22;10524;48.132;8.518;2024-03-08T05:38:43;0.30;99.90
20726;DHT22;10524;48.132;8.518;2024-03-08T05:41:09;0.30;99.90
20726;DHT22;10524;48.132;8.518;2024-03-08T05:43:35;0.30;99.90
20726;DHT22;10524;48.132;8.518;2024-03-08T05:46:01;0.40;99.90
20726;DHT22;10524;48.132;8.518;2024-03-08T05:48:30;0.30;99.90
20726;DHT22;10524;48.132;8.518;2024-03-08T05:50:58;0.30;99.90
20726;DHT22;10524;48.132;8.518;2024-03-08T05:53:24;0.30;99.90
20726;DHT22;10524;48.132;8.518;2024-03-08T05:55:50;0.30;99.90
20726;DHT22;10524;48.132;8.518;2024-03-08T05:58:16;0.20;99.90
20726;DHT22;10524;48.132;8.518;2024-03-08T06:00:42;0.20;99.90
20726;DHT22;10524;48.132;8.518;2024-03-08T06:03:07;0.20;99.90
20726;DHT22;10524;48.132;8.518;2024-03-08T06:05:33;0.20;99.90
20726;DHT22;10524;48.132;8.518;2024-03-08T06:07:59;0.20;99.90
20726;DHT22;10524;48.132;8.518;2024-03-08T06:10:24;0.20;99.90
20726;DHT22;10524;48.132;8.518;2024-03-08T06:12:50;0.20;99.90
20726;DHT22;10524;48.132;8.518;2024-03-08T06:15:17;0.20;99.90
20726;DHT22;10524;48.132;8.518;2024-03-08T06:17:42;0.20;99.90
20726;DHT22;10524;48.132;8.518;2024-03-08T06:20:09;0.20;99.90
20726;DHT22;10524;48.132;8.518;2024-03-08T06:22:39;0.20;99.90
20726;DHT22;10524;48.132;8.518;2024-03-08T06:25:08;0.20;99.90
20726;DHT22;10524;48.132;8.518;2024-03-08T06:27:36;0.20;99.90
20726;DHT22;10524;48.132;8.518;2024-03-08T06:30:02;0.20;99.90
20726;DHT22;10524;48.132;8.518;2024-03-08T06:32:30;0.20;99.90
20726;DHT22;10524;48.132;8.518;2024-03-08T06:34:56;0.30;99.90
20726;DHT22;10524;48.132;8.518;2024-03-08T06:37:22;0.30;99.90
20726;DHT22;10524;48.132;8.518;2024-03-08T06:39:49;0.30;99.90
20726;DHT22;10524;48.132;8.518;2024-03-08T06:42:17;0.30;99.90
20726;DHT22;10524;48.132;8.518;2024-03-08T06:44:42;0.30;99.90
20726;DHT22;10524;48.132;8.518;2024-03-08T06:47:15;0.30;99.90
20726;DHT22;10524;48.132;8.518;2024-03-08T06:49:42;0.30;99.90
20726;DHT22;10524;48.132;8.518;2024-03-08T06:52:09;0.30;99.90
20726;DHT22;10524;48.132;8.518;2024-03-08T06:54:35;0.30;99.90
20726;DHT22;10524;48.132;8.518;2024-03-08T06:57:05;0.40;99.90
20726;DHT22;10524;48.132;8.518;2024-03-08T06:59:32;0.40;99.90
20726;DHT22;10524;48.132;8.518;2024-03-08T07:01:57;0.40;99.90
20726;DHT22;10524;48.132;8.518;2024-03-08T07:04:25;0.50;99.90
20726;DHT22;10524;48.132;8.518;2024-03-08T07:06:54;0.50;99.90
20726;DHT22;10524;48.132;8.518;2024-03-08T07:09:20;0.50;99.90
20726;DHT22;10524;48.132;8.518;2024-03-08T07:11:46;0.50;99.90
20726;DHT22;10524;48.132;8.518;2024-03-08T07:14:12;0.60;99.90
20726;DHT22;10524;48.132;8.518;2024-03-08T07:16:40;0.60;99.90
20726;DHT22;10524;48.132;8.518;2024-03-08T07:19:07;0.70;99.90
20726;DHT22;10524;48.132;8.518;2024-03-08T07:21:33;0.70;99.90
20726;DHT22;10524;48.132;8.518;2024-03-08T07:23:59;0.70;99.90
20726;DHT22;10524;48.132;8.518;2024-03-08T07:26:24;0.70;99.90
20726;DHT22;10524;48.132;8.518;2024-03-08T07:28:53;0.70;99.90
20726;DHT22;10524;48.132;8.518;2024-03-08T07:31:22;0.70;99.90
20726;DHT22;10524;48.132;8.518;2024-03-08T07:33:51;0.80;99.90
20726;DHT22;10524;48.132;8.518;2024-03-08T07:36:19;0.80;99.90
20726;DHT22;10524;48.132;8.518;2024-03-08T07:38:45;0.80;99.90
20726;DHT22;10524;48.132;8.518;2024-03-08T07:41:15;0.90;99.90
20726;DHT22;10524;48.132;8.518;2024-03-08T07:43:41;0.90;99.90
20726;DHT22;10524;48.132;8.518;2024-03-08T07:46:09;1.10;99.90
20726;DHT22;10524;48.132;8.518;2024-03-08T07:48:36;1.10;99.90
20726;DHT22;10524;48.132;8.518;2024-03-08T07:51:02;1.20;99.90
20726;DHT22;10524;48.132;8.518;2024-03-08T07:53:28;1.30;99.90
20726;DHT22;10524;48.132;8.518;2024-03-08T07:55:54;1.40;99.90
20726;DHT22;10524;48.132;8.518;2024-03-08T07:58:20;1.50;99.90
20726;DHT22;10524;48.132;8.518;2024-03-08T08:00:46;1.50;99.90
20726;DHT22;10524;48.132;8.518;2024-03-08T08:03:11;1.50;99.90
20726;DHT22;10524;48.132;8.518;2024-03-08T08:05:38;1.60;99.90
20726;DHT22;10524;48.132;8.518;2024-03-08T08:08:08;1.60;99.90
20726;DHT22;10524;48.132;8.518;2024-03-08T08:10:36;1.60;99.90
20726;DHT22;10524;48.132;8.518;2024-03-08T08:13:03;1.60;99.90
20726;DHT22;10524;48.132;8.518;2024-03-08T08:15:30;1.70;99.90
20726;DHT22;10524;48.132;8.518;2024-03-08T08:17:56;1.60;99.90
20726;DHT22;10524;48.132;8.518;2024-03-08T08:20:21;1.70;99.90
20726;DHT22;10524;48.132;8.518;2024-03-08T08:22:51;1.70;99.90
20726;DHT22;10524;48.132;8.518;2024-03-08T08:25:17;1.70;99.90
20726;DHT22;10524;48.132;8.518;2024-03-08T08:27:46;1.70;99.90
20726;DHT22;10524;48.132;8.518;2024-03-08T08:30:12;1.80;99.90
20726;DHT22;10524;48.132;8.518;2024-03-08T08:32:39;1.80;99.90
20726;DHT22;10524;48.132;8.518;2024-03-08T08:35:06;1.90;99.90
20726;DHT22;10524;48.132;8.518;2024-03-08T08:37:32;1.90;99.90
20726;DHT22;10524;48.132;8.518;2024-03-08T08:39:58;1.90;99.90
20726;DHT22;10524;48.132;8.518;2024-03-08T08:42:24;1.90;99.90
20726;DHT22;10524;48.132;8.518;2024-03-08T08:44:51;2.00;99.90
20726;DHT22;10524;48.132;8.518;2024-03-08T08:47:17;2.00;99.90
20726;DHT22;10524;48.132;8.518;2024-03-08T08:49:47;2.00;99.90
20726;DHT22;10524;48.132;8.518;2024-03-08T08:52:13;2.10;99.90
20726;DHT22;10524;48.132;8.518;2024-03-08T08:54:39;2.20;99.90
20726;DHT22;10524;48.132;8.518;2024-03-08T08:57:04;2.30;99.90
20726;DHT22;10524;48.132;8.518;2024-03-08T08:59:36;2.40;99.90
20726;DHT22;10524;48.132;8.518;2024-03-08T09:02:06;2.50;99.90
20726;DHT22;10524;48.132;8.518;2024-03-08T09:04:32;2.60;99.90
20726;DHT22;10524;48.132;8.518;2024-03-08T09:06:58;2.80;99.90
20726;DHT22;10524;48.132;8.518;2024-03-08T09:09:24;2.70;99.90
20726;DHT22;10524;48.132;8.518;2024-03-08T09:11:51;2.60;99.90
20726;DHT22;10524;48.132;8.518;2024-03-08T09:14:17;2.60;99.90
20726;DHT22;10524;48.132;8.518;2024-03-08T09:16:42;2.70;99.90
20726;DHT22;10524;48.132;8.518;2024-03-08T09:19:08;2.80;99.90
20726;DHT22;10524;48.132;8.518;2024-03-08T09:21:36;3.00;99.90
20726;DHT22;10524;48.132;8.518;2024-03-08T09:24:03;3.30;99.90
20726;DHT22;10524;48.132;8.518;2024-03-08T09:26:28;3.40;99.90
20726;DHT22;10524;48.132;8.518;2024-03-08T09:28:54;3.20;99.90
20726;DHT22;10524;48.132;8.518;2024-03-08T09:31:21;3.00;99.90
20726;DHT22;10524;48.132;8.518;2024-03-08T09:33:47;3.00;99.90
20726;DHT22;10524;48.132;8.518;2024-03-08T09:36:13;3.10;99.90
20726;DHT22;10524;48.132;8.518;2024-03-08T09:38:40;3.20;99.90
20726;DHT22;10524;48.132;8.518;2024-03-08T09:41:06;3.30;99.90
20726;DHT22;10524;48.132;8.518;2024-03-08T09:43:32;3.30;99.90
20726;DHT22;10524;48.132;8.518;2024-03-08T09:45:58;3.40;99.90
20726;DHT22;10524;48.132;8.518;2024-03-08T09:48:25;3.60;99.90
20726;DHT22;10524;48.132;8.518;2024-03-08T09:50:51;4.10;99.90
20726;DHT22;10524;48.132;8.518;2024-03-08T09:53:18;4.30;99.90
20726;DHT22;10524;48.132;8.518;2024-03-08T09:55:44;4.20;99.90
20726;DHT22;10524;48.132;8.518;2024-03-08T09:58:15;4.40;99.90
20726;DHT22;10524;48.132;8.518;2024-03-08T10:00:53;4.40;99.90
20726;DHT22;10524;48.132;8.518;2024-03-08T10:03:22;4.70;99.90
20726;DHT22;10524;48.132;8.518;2024-03-08T10:05:48;4.80;99.90
20726;DHT22;10524;48.132;8.518;2024-03-08T10:08:14;4.70;99.90
20726;DHT22;10524;48.132;8.518;2024-03-08T10:10:40;4.80;99.90
20726;DHT22;10524;48.132;8.518;2024-03-08T10:13:09;4.90;99.90
20726;DHT22;10524;48.132;8.518;2024-03-08T10:15:36;5.10;99.90
20726;DHT22;10524;48.132;8.518;2024-03-08T10:18:02;5.20;99.90
20726;DHT22;10524;48.132;8.518;2024-03-08T10:20:30;4.90;99.90
20726;DHT22;10524;48.132;8.518;2024-03-08T10:23:02;5.20;99.90
20726;DHT22;10524;48.132;8.518;2024-03-08T10:25:30;5.20;99.90
20726;DHT22;10524;48.132;8.518;2024-03-08T10:27:56;5.10;99.90
20726;DHT22;10524;48.132;8.518;2024-03-08T10:30:23;5.30;99.90
20726;DHT22;10524;48.132;8.518;2024-03-08T10:32:49;5.90;99.90
20726;DHT22;10524;48.132;8.518;2024-03-08T10:35:15;6.60;99.90
20726;DHT22;10524;48.132;8.518;2024-03-08T10:38:01;6.50;99.90
20726;DHT22;10524;48.132;8.518;2024-03-08T10:40:30;6.10;99.90
20726;DHT22;10524;48.132;8.518;2024-03-08T10:42:59;6.90;99.90
20726;DHT22;10524;48.132;8.518;2024-03-08T10:45:35;7.40;99.90
20726;DHT22;10524;48.132;8.518;2024-03-08T10:50:33;8.30;99.90
20726;DHT22;10524;48.132;8.518;2024-03-08T10:53:00;9.60;99.90
20726;DHT22;10524;48.132;8.518;2024-03-08T10:55:28;13.80;99.90
20726;DHT22;10524;48.132;8.518;2024-03-08T10:57:54;16.60;99.90
20726;DHT22;10524;48.132;8.518;2024-03-08T11:00:20;14.80;99.90
20726;DHT22;10524;48.132;8.518;2024-03-08T11:02:53;12.70;99.90
20726;DHT22;10524;48.132;8.518;2024-03-08T11:05:40;11.30;99.90
20726;DHT22;10524;48.132;8.518;2024-03-08T11:08:18;10.60;99.90
20726;DHT22;10524;48.132;8.518;2024-03-08T11:10:51;10.70;99.90
20726;DHT22;10524;48.132;8.518;2024-03-08T11:13:37;11.20;99.90
20726;DHT22;10524;48.132;8.518;2024-03-08T11:16:10;12.70;99.90
20726;DHT22;10524;48.132;8.518;2024-03-08T11:18:36;15.20;99.90
20726;DHT22;10524;48.132;8.518;2024-03-08T11:21:09;17.00;99.90
20726;DHT22;10524;48.132;8.518;2024-03-08T11:23:38;18.50;99.90
20726;DHT22;10524;48.132;8.518;2024-03-08T11:26:20;19.80;99.90
20726;DHT22;10524;48.132;8.518;2024-03-08T11:28:46;20.60;99.90
20726;DHT22;10524;48.132;8.518;2024-03-08T11:33:40;22.00;99.90
20726;DHT22;10524;48.132;8.518;2024-03-08T11:36:23;23.20;99.90
20726;DHT22;10524;48.132;8.518;2024-03-08T11:38:53;22.50;99.90
20726;DHT22;10524;48.132;8.518;2024-03-08T11:41:22;22.00;99.90
20726;DHT22;10524;48.132;8.518;2024-03-08T11:43:49;22.90;99.90
20726;DHT22;10524;48.132;8.518;2024-03-08T11:46:16;23.40;99.90
20726;DHT22;10524;48.132;8.518;2024-03-08T11:48:44;23.30;99.90
20726;DHT22;10524;48.132;8.518;2024-03-08T11:51:13;23.10;99.90
20726;DHT22;10524;48.132;8.518;2024-03-08T11:53:40;22.50;99.90
20726;DHT22;10524;48.132;8.518;2024-03-08T11:56:10;22.50;99.90
20726;DHT22;10524;48.132;8.518;2024-03-08T11:58:40;22.80;99.90
20726;DHT22;10524;48.132;8.518;2024-03-08T12:01:07;21.90;99.90
20726;DHT22;10524;48.132;8.518;2024-03-08T12:03:40;21.20;99.90
20726;DHT22;10524;48.132;8.518;2024-03-08T12:06:11;21.50;99.90
20726;DHT22;10524;48.132;8.518;2024-03-08T12:08:39;20.90;99.90
20726;DHT22;10524;48.132;8.518;2024-03-08T12:11:05;21.30;99.90
20726;DHT22;10524;48.132;8.518;2024-03-08T12:13:34;20.70;99.90
20726;DHT22;10524;48.132;8.518;2024-03-08T12:16:02;19.70;99.90
20726;DHT22;10524;48.132;8.518;2024-03-08T12:18:38;19.60;99.90
20726;DHT22;10524;48.132;8.518;2024-03-08T12:21:06;19.80;99.90
20726;DHT22;10524;48.132;8.518;2024-03-08T12:23:36;20.70;99.90
20726;DHT22;10524;48.132;8.518;2024-03-08T12:26:13;21.20;99.90
20726;DHT22;10524;48.132;8.518;2024-03-08T12:28:40;20.70;99.90
20726;DHT22;10524;48.132;8.518;2024-03-08T12:31:09;20.60;99.90
20726;DHT22;10524;48.132;8.518;2024-03-08T12:33:57;19.80;99.90
20726;DHT22;10524;48.132;8.518;2024-03-08T12:36:26;19.40;99.90
20726;DHT22;10524;48.132;8.518;2024-03-08T12:38:53;20.10;99.90
20726;DHT22;10524;48.132;8.518;2024-03-08T12:41:20;20.90;99.90
20726;DHT22;10524;48.132;8.518;2024-03-08T12:43:47;21.20;99.90
20726;DHT22;10524;48.132;8.518;2024-03-08T12:46:17;21.60;99.90
20726;DHT22;10524;48.132;8.518;2024-03-08T12:48:45;21.00;99.90
20726;DHT22;10524;48.132;8.518;2024-03-08T12:51:16;21.40;99.90
20726;DHT22;10524;48.132;8.518;2024-03-08T12:53:44;20.70;99.90
20726;DHT22;10524;48.132;8.518;2024-03-08T12:56:10;19.60;99.90
20726;DHT22;10524;48.132;8.518;2024-03-08T12:58:36;20.00;99.90
20726;DHT22;10524;48.132;8.518;2024-03-08T13:01:03;20.20;99.90
20726;DHT22;10524;48.132;8.518;2024-03-08T13:03:35;19.50;99.90
20726;DHT22;10524;48.132;8.518;2024-03-08T13:06:05;19.50;99.90
20726;DHT22;10524;48.132;8.518;2024-03-08T13:08:37;19.80;99.90
20726;DHT22;10524;48.132;8.518;2024-03-08T13:11:10;20.30;99.90
20726;DHT22;10524;48.132;8.518;2024-03-08T13:13:37;20.90;99.90
20726;DHT22;10524;48.132;8.518;2024-03-08T13:16:06;21.10;99.90
20726;DHT22;10524;48.132;8.518;2024-03-08T13:18:35;21.10;99.90
20726;DHT22;10524;48.132;8.518;2024-03-08T13:21:01;21.00;99.90
20726;DHT22;10524;48.132;8.518;2024-03-08T13:23:33;21.80;99.90
20726;DHT22;10524;48.132;8.518;2024-03-08T13:26:08;22.30;99.90
20726;DHT22;10524;48.132;8.518;2024-03-08T13:28:34;21.60;99.90
20726;DHT22;10524;48.132;8.518;2024-03-08T13:31:04;20.50;99.90
20726;DHT22;10524;48.132;8.518;2024-03-08T13:33:33;19.70;99.90
20726;DHT22;10524;48.132;8.518;2024-03-08T13:36:02;19.10;99.90
20726;DHT22;10524;48.132;8.518;2024-03-08T13:38:32;18.60;99.90
20726;DHT22;10524;48.132;8.518;2024-03-08T13:40:59;18.40;99.90
20726;DHT22;10524;48.132;8.518;2024-03-08T13:43:25;19.20;99.90
20726;DHT22;10524;48.132;8.518;2024-03-08T13:45:55;19.60;99.90
20726;DHT22;10524;48.132;8.518;2024-03-08T13:48:21;18.30;99.90
20726;DHT22;10524;48.132;8.518;2024-03-08T13:50:48;17.10;99.90
20726;DHT22;10524;48.132;8.518;2024-03-08T13:53:15;16.30;99.90
20726;DHT22;10524;48.132;8.518;2024-03-08T13:55:41;16.80;99.90
20726;DHT22;10524;48.132;8.518;2024-03-08T13:58:07;17.40;99.90
20726;DHT22;10524;48.132;8.518;2024-03-08T14:00:38;16.90;99.90
20726;DHT22;10524;48.132;8.518;2024-03-08T14:03:04;16.20;99.90
20726;DHT22;10524;48.132;8.518;2024-03-08T14:05:31;16.40;99.90
20726;DHT22;10524;48.132;8.518;2024-03-08T14:08:03;16.50;99.90
20726;DHT22;10524;48.132;8.518;2024-03-08T14:10:29;17.10;99.90
20726;DHT22;10524;48.132;8.518;2024-03-08T14:12:57;17.50;99.90
20726;DHT22;10524;48.132;8.518;2024-03-08T14:15:23;16.90;99.90
20726;DHT22;10524;48.132;8.518;2024-03-08T14:17:54;16.90;99.90
20726;DHT22;10524;48.132;8.518;2024-03-08T14:20:21;16.40;99.90
20726;DHT22;10524;48.132;8.518;2024-03-08T14:22:54;17.00;99.90
20726;DHT22;10524;48.132;8.518;2024-03-08T14:25:23;17.40;99.90
20726;DHT22;10524;48.132;8.518;2024-03-08T14:27:53;16.30;99.90
20726;DHT22;10524;48.132;8.518;2024-03-08T14:30:20;15.70;99.90
20726;DHT22;10524;48.132;8.518;2024-03-08T14:32:58;15.40;99.90
20726;DHT22;10524;48.132;8.518;2024-03-08T14:35:26;15.80;99.90
20726;DHT22;10524;48.132;8.518;2024-03-08T14:37:52;14.50;99.90
20726;DHT22;10524;48.132;8.518;2024-03-08T14:40:18;14.60;99.90
20726;DHT22;10524;48.132;8.518;2024-03-08T14:42:51;14.10;99.90
20726;DHT22;10524;48.132;8.518;2024-03-08T14:45:17;14.60;99.90
20726;DHT22;10524;48.132;8.518;2024-03-08T14:47:48;14.40;99.90
20726;DHT22;10524;48.132;8.518;2024-03-08T14:50:18;14.30;99.90
20726;DHT22;10524;48.132;8.518;2024-03-08T14:52:44;14.50;99.90
20726;DHT22;10524;48.132;8.518;2024-03-08T14:55:11;13.80;99.90
20726;DHT22;10524;48.132;8.518;2024-03-08T14:57:43;12.60;99.90
20726;DHT22;10524;48.132;8.518;2024-03-08T15:00:11;12.20;99.90
20726;DHT22;10524;48.132;8.518;2024-03-08T15:03:04;12.20;99.90
20726;DHT22;10524;48.132;8.518;2024-03-08T15:05:33;11.40;99.90
20726;DHT22;10524;48.132;8.518;2024-03-08T15:08:03;11.00;99.90
20726;DHT22;10524;48.132;8.518;2024-03-08T15:10:35;10.80;99.90
20726;DHT22;10524;48.132;8.518;2024-03-08T15:13:01;10.40;99.90
20726;DHT22;10524;48.132;8.518;2024-03-08T15:15:33;9.70;99.90
20726;DHT22;10524;48.132;8.518;2024-03-08T15:17:59;9.20;99.90
20726;DHT22;10524;48.132;8.518;2024-03-08T15:20:25;9.00;99.90
20726;DHT22;10524;48.132;8.518;2024-03-08T15:22:54;9.00;99.90
20726;DHT22;10524;48.132;8.518;2024-03-08T15:25:24;9.00;99.90
20726;DHT22;10524;48.132;8.518;2024-03-08T15:27:53;9.00;99.90
20726;DHT22;10524;48.132;8.518;2024-03-08T15:30:19;8.70;99.90
20726;DHT22;10524;48.132;8.518;2024-03-08T15:32:48;8.60;99.90
20726;DHT22;10524;48.132;8.518;2024-03-08T15:35:16;8.50;99.90
20726;DHT22;10524;48.132;8.518;2024-03-08T15:37:43;8.30;99.90
20726;DHT22;10524;48.132;8.518;2024-03-08T15:40:14;8.20;99.90
20726;DHT22;10524;48.132;8.518;2024-03-08T15:45:17;7.90;99.90
20726;DHT22;10524;48.132;8.518;2024-03-08T15:47:43;7.80;99.90
20726;DHT22;10524;48.132;8.518;2024-03-08T15:50:10;7.70;99.90